Time;durP1;ratioP1;P1;durP2;ratioP2;P2;SDS_P1;SDS_P2;PMS_P1;PMS_P2;Temp;Humidity;BMP_temperature;BMP_pressure;BME280_temperature;BME280_humidity;BME280_pressure;Samples;Min_cycle;Max_cycle;Signal;HPM_P1;HPM_P2
2023/03/16 00:00:12;;;;;;;1.55;1.20;;;3.50;99.90;;;;;;5017337;28;20473;-74
2023/03/16 00:02:42;;;;;;;1.65;1.10;;;3.50;99.90;;;;;;5018834;28;20032;-74
2023/03/16 00:05:12;;;;;;;3.85;1.55;;;3.50;99.90;;;;;;5016270;28;20116;-74
2023/03/16 00:07:40;;;;;;;1.77;1.10;;;3.60;99.90;;;;;;5016040;28;20026;-74
2023/03/16 00:10:07;;;;;;;1.90;1.30;;;3.50;99.90;;;;;;5014772;28;20022;-74
2023/03/16 00:12:33;;;;;;;1.70;1.10;;;3.60;99.90;;;;;;5013523;28;20037;-74
2023/03/16 00:14:59;;;;;;;2.15;0.90;;;3.60;99.90;;;;;;5013283;28;20030;-74
2023/03/16 00:17:25;;;;;;;3.47;1.30;;;3.50;99.90;;;;;;5015984;28;20382;-74
2023/03/16 00:19:56;;;;;;;1.65;1.23;;;3.50;99.90;;;;;;5015335;28;20026;-74
2023/03/16 00:22:24;;;;;;;2.47;1.42;;;3.40;99.90;;;;;;5016676;28;20569;-74
2023/03/16 00:24:51;;;;;;;2.22;1.50;;;3.30;99.90;;;;;;5015816;28;20058;-74
2023/03/16 00:27:17;;;;;;;4.72;1.40;;;3.30;99.90;;;;;;5015856;28;20060;-74
2023/03/16 00:29:48;;;;;;;1.33;1.23;;;3.20;99.90;;;;;;5016276;28;20026;-74
2023/03/16 00:32:20;;;;;;;4.05;1.52;;;3.10;99.90;;;;;;5014273;28;20050;-73
2023/03/16 00:34:46;;;;;;;4.55;1.45;;;3.00;99.90;;;;;;5015743;28;20056;-74
2023/03/16 00:37:15;;;;;;;4.25;1.45;;;3.10;99.90;;;;;;5012751;28;20460;-74
2023/03/16 00:39:42;;;;;;;5.40;1.75;;;3.10;99.90;;;;;;5012549;28;20030;-74
2023/03/16 00:42:09;;;;;;;5.28;1.60;;;3.00;99.90;;;;;;5012686;28;20466;-75
2023/03/16 00:44:36;;;;;;;4.35;1.70;;;3.00;99.90;;;;;;5013746;28;20026;-74
2023/03/16 00:47:03;;;;;;;4.00;1.85;;;3.00;99.90;;;;;;5012409;28;20498;-74
2023/03/16 00:49:33;;;;;;;2.70;1.70;;;2.90;99.90;;;;;;5012726;28;20026;-74
2023/03/16 00:52:00;;;;;;;3.42;1.85;;;3.00;99.90;;;;;;5015679;28;20038;-75
2023/03/16 00:54:26;;;;;;;2.63;1.75;;;2.90;99.90;;;;;;5013795;28;20030;-74
2023/03/16 00:56:52;;;;;;;2.47;1.60;;;2.90;99.90;;;;;;5015307;28;20026;-74
2023/03/16 00:59:20;;;;;;;2.17;1.95;;;2.80;99.90;;;;;;5017270;28;20026;-74
2023/03/16 01:01:46;;;;;;;2.42;1.40;;;2.80;99.90;;;;;;5016321;28;20135;-74
2023/03/16 01:04:12;;;;;;;2.85;2.03;;;2.70;99.90;;;;;;5015892;28;20461;-74
2023/03/16 01:06:40;;;;;;;4.72;2.10;;;2.70;99.90;;;;;;5016358;28;20381;-74
2023/03/16 01:09:07;;;;;;;2.65;2.17;;;2.70;99.90;;;;;;5019795;28;20414;-75
2023/03/16 01:11:33;;;;;;;2.60;1.70;;;2.60;99.90;;;;;;5018150;28;20061;-74
2023/03/16 01:13:59;;;;;;;3.25;1.70;;;2.60;99.90;;;;;;5017535;28;20092;-75
2023/03/16 01:16:25;;;;;;;3.33;2.05;;;2.60;99.90;;;;;;5017484;28;20100;-74
2023/03/16 01:18:52;;;;;;;3.17;1.80;;;2.50;99.90;;;;;;5017926;28;20034;-74
2023/03/16 01:21:20;;;;;;;1.80;1.70;;;2.50;99.90;;;;;;5017810;28;20034;-74
2023/03/16 01:23:46;;;;;;;1.90;1.63;;;2.50;99.90;;;;;;5017625;28;20386;-75
2023/03/16 01:26:15;;;;;;;2.35;2.15;;;2.50;99.90;;;;;;5017258;28;20092;-75
2023/03/16 01:28:43;;;;;;;;;;;2.40;99.90;;;;;;5016762;28;20034;-74
2023/03/16 01:31:10;;;;;;;4.50;2.00;;;2.40;99.90;;;;;;5015883;28;20268;-74
2023/03/16 01:33:37;;;;;;;3.45;2.28;;;2.40;99.90;;;;;;5015505;28;20481;-74
2023/03/16 01:36:08;;;;;;;3.13;2.42;;;2.40;99.90;;;;;;5016625;28;20026;-75
2023/03/16 01:38:35;;;;;;;2.95;2.30;;;2.30;99.90;;;;;;5015148;28;20041;-74
2023/03/16 01:41:01;;;;;;;2.40;2.20;;;2.40;99.90;;;;;;5016464;28;20041;-74
2023/03/16 01:43:29;;;;;;;2.55;2.30;;;2.40;99.90;;;;;;5015267;28;20030;-74
2023/03/16 01:46:16;;;;;;;4.72;2.25;;;2.40;99.90;;;;;;5015808;28;20428;-62
2023/03/16 01:48:54;;;;;;;3.97;2.38;;;2.50;99.90;;;;;;5016879;28;20029;-62
2023/03/16 01:51:28;;;;;;;1.90;1.80;;;2.60;99.90;;;;;;5015246;28;20064;-74
2023/03/16 01:54:01;;;;;;;3.95;2.13;;;2.50;99.90;;;;;;5016175;28;20030;-75
2023/03/16 01:56:40;;;;;;;2.58;2.38;;;2.40;99.90;;;;;;5018900;28;20022;-75
2023/03/16 01:59:12;;;;;;;2.15;1.95;;;2.40;99.90;;;;;;5017448;28;20029;-75
2023/03/16 02:01:38;;;;;;;6.05;2.53;;;2.30;99.90;;;;;;5015121;28;20026;-74
2023/03/16 02:04:21;;;;;;;3.85;2.80;;;2.30;99.90;;;;;;5014979;28;20122;-74
2023/03/16 02:06:48;;;;;;;3.38;2.47;;;2.20;99.90;;;;;;5015081;28;20076;-74
2023/03/16 02:09:16;;;;;;;3.03;2.20;;;2.10;99.90;;;;;;5016037;28;20041;-75
2023/03/16 02:11:42;;;;;;;2.83;2.30;;;2.10;99.90;;;;;;5014976;28;20037;-74
2023/03/16 02:14:10;;;;;;;8.23;2.85;;;2.10;99.90;;;;;;5015101;28;20033;-74
2023/03/16 02:16:37;;;;;;;2.58;2.10;;;2.10;99.90;;;;;;5015019;28;20033;-75
2023/03/16 02:19:08;;;;;;;2.65;2.45;;;2.10;99.90;;;;;;5014662;28;20428;-74
2023/03/16 02:21:54;;;;;;;3.08;2.45;;;2.10;99.90;;;;;;5015588;28;20168;-74
2023/03/16 02:24:20;;;;;;;3.38;2.60;;;2.10;99.90;;;;;;5014601;28;20038;-74
2023/03/16 02:27:02;;;;;;;3.97;2.70;;;2.10;99.90;;;;;;5015683;28;20079;-74
2023/03/16 02:30:00;;;;;;;2.95;2.45;;;2.10;99.90;;;;;;5014336;28;20072;-74
2023/03/16 02:32:28;;;;;;;2.53;2.25;;;2.10;99.90;;;;;;5014114;28;20552;-74
2023/03/16 02:34:54;;;;;;;3.58;2.50;;;2.10;99.90;;;;;;5014213;28;20076;-74
2023/03/16 02:37:21;;;;;;;4.55;2.88;;;2.10;99.90;;;;;;5015669;28;20034;-74
2023/03/16 02:39:46;;;;;;;5.40;2.53;;;2.10;99.90;;;;;;5014084;28;20026;-74
2023/03/16 02:42:17;;;;;;;3.03;2.80;;;2.10;99.90;;;;;;5015728;28;20034;-74
2023/03/16 02:44:48;;;;;;;2.85;2.55;;;2.20;99.90;;;;;;5014156;28;20026;-74
2023/03/16 02:47:36;;;;;;;2.97;2.67;;;2.10;99.90;;;;;;5015561;28;20026;-74
2023/03/16 02:50:06;;;;;;;6.65;3.20;;;2.10;99.90;;;;;;5015247;28;20072;-74
2023/03/16 02:52:36;;;;;;;3.38;2.85;;;2.00;99.90;;;;;;5015014;28;20073;-74
2023/03/16 02:55:03;;;;;;;2.88;2.65;;;2.00;99.90;;;;;;5015460;28;20026;-74
2023/03/16 02:57:29;;;;;;;3.75;2.60;;;1.90;99.90;;;;;;5014299;28;20037;-74
2023/03/16 02:59:54;;;;;;;3.60;2.35;;;1.80;99.90;;;;;;5015533;28;20029;-74
2023/03/16 03:02:20;;;;;;;2.97;2.70;;;1.80;99.90;;;;;;5013913;28;20033;-74
2023/03/16 03:04:46;;;;;;;4.32;2.60;;;1.80;99.90;;;;;;5015341;28;20033;-74
2023/03/16 03:07:13;;;;;;;3.10;2.80;;;1.70;99.90;;;;;;5015106;28;20494;-74
2023/03/16 03:09:43;;;;;;;3.33;2.63;;;1.70;99.90;;;;;;5014728;28;20111;-74
2023/03/16 03:12:09;;;;;;;4.82;3.05;;;1.60;99.90;;;;;;5015031;28;20030;-74
2023/03/16 03:14:39;;;;;;;5.78;3.00;;;1.60;99.90;;;;;;5013679;28;20030;-74
2023/03/16 03:17:07;;;;;;;4.03;2.75;;;1.50;99.90;;;;;;5013539;28;20026;-74
2023/03/16 03:19:33;;;;;;;3.85;2.97;;;1.40;99.90;;;;;;5014315;28;20026;-74
2023/03/16 03:22:03;;;;;;;3.88;2.88;;;1.40;99.90;;;;;;5014762;28;20044;-75
2023/03/16 03:24:30;;;;;;;6.95;3.25;;;1.40;99.90;;;;;;5013784;28;20063;-75
2023/03/16 03:26:59;;;;;;;4.43;3.35;;;1.40;99.90;;;;;;5013496;28;20022;-75
2023/03/16 03:29:33;;;;;;;4.25;3.15;;;1.30;99.90;;;;;;5013731;28;20041;-75
2023/03/16 03:32:03;;;;;;;6.70;3.28;;;1.30;99.90;;;;;;5014705;28;20099;-75
2023/03/16 03:34:30;;;;;;;5.22;3.25;;;1.20;99.90;;;;;;5013442;28;20021;-75
2023/03/16 03:36:56;;;;;;;5.95;3.08;;;1.20;99.90;;;;;;5013885;28;20026;-75
2023/03/16 03:39:23;;;;;;;6.13;3.70;;;1.20;99.90;;;;;;5013250;28;20030;-75
2023/03/16 03:41:49;;;;;;;5.22;3.20;;;1.20;99.90;;;;;;5013559;28;20026;-74
2023/03/16 03:44:15;;;;;;;3.20;2.90;;;1.10;99.90;;;;;;5012847;28;20026;-74
2023/03/16 03:46:41;;;;;;;3.42;2.92;;;1.10;99.90;;;;;;5013055;28;20033;-74
2023/03/16 03:49:07;;;;;;;5.15;3.10;;;1.10;99.90;;;;;;5013323;28;20029;-74
2023/03/16 03:51:33;;;;;;;5.70;3.88;;;1.00;99.90;;;;;;5013203;28;20382;-74
2023/03/16 03:53:58;;;;;;;4.43;3.22;;;1.00;99.90;;;;;;5013176;28;20026;-74
2023/03/16 03:56:25;;;;;;;3.63;3.28;;;0.90;99.90;;;;;;5012870;28;20032;-74
2023/03/16 03:58:51;;;;;;;4.05;3.15;;;0.90;99.90;;;;;;5014723;28;20033;-74
2023/03/16 04:01:17;;;;;;;6.45;3.50;;;0.80;99.90;;;;;;5013610;28;20434;-74
2023/03/16 04:03:44;;;;;;;5.30;3.28;;;0.80;99.90;;;;;;5015758;28;20030;-75
2023/03/16 04:06:09;;;;;;;4.38;3.33;;;0.80;99.90;;;;;;5016361;28;20022;-75
2023/03/16 04:08:35;;;;;;;4.95;3.03;;;0.70;99.90;;;;;;5015696;28;20449;-74
2023/03/16 04:11:01;;;;;;;4.80;3.20;;;0.70;99.90;;;;;;5015872;28;20080;-74
2023/03/16 04:13:27;;;;;;;6.93;3.40;;;0.60;99.90;;;;;;5014620;28;20065;-74
2023/03/16 04:15:57;;;;;;;3.35;3.05;;;0.60;99.90;;;;;;5014107;28;20050;-74
2023/03/16 04:18:23;;;;;;;7.85;3.80;;;0.60;99.90;;;;;;5014259;28;20025;-74
2023/03/16 04:20:51;;;;;;;7.70;3.60;;;0.50;99.90;;;;;;5013287;28;20375;-75
2023/03/16 04:23:18;;;;;;;5.70;4.00;;;0.50;99.90;;;;;;5012799;28;20030;-75
2023/03/16 04:25:44;;;;;;;5.05;4.43;;;0.40;99.90;;;;;;5013082;28;20116;-75
2023/03/16 04:28:10;;;;;;;4.70;3.60;;;0.40;99.90;;;;;;5013362;28;20069;-74
2023/03/16 04:30:36;;;;;;;4.00;3.22;;;0.50;99.90;;;;;;5014956;28;20116;-74
2023/03/16 04:33:01;;;;;;;5.53;3.92;;;0.40;99.90;;;;;;5016345;28;20550;-74
2023/03/16 04:35:27;;;;;;;7.63;3.60;;;0.40;99.90;;;;;;5016660;28;20088;-74
2023/03/16 04:37:53;;;;;;;6.13;4.20;;;0.40;99.90;;;;;;5016568;28;20026;-73
2023/03/16 04:40:20;;;;;;;7.68;4.45;;;0.40;99.90;;;;;;5017774;28;20026;-74
2023/03/16 04:42:46;;;;;;;6.03;4.22;;;0.30;99.90;;;;;;5016270;28;20421;-74
2023/03/16 04:45:14;;;;;;;6.22;3.60;;;0.30;99.90;;;;;;5017424;28;20033;-74
2023/03/16 04:47:39;;;;;;;5.90;4.60;;;0.30;99.90;;;;;;5016081;28;20065;-74
2023/03/16 04:50:06;;;;;;;4.43;3.50;;;0.30;99.90;;;;;;5016262;28;20062;-74
2023/03/16 04:52:32;;;;;;;7.97;3.70;;;0.20;99.90;;;;;;5016098;28;20561;-61
2023/03/16 04:54:57;;;;;;;5.80;3.45;;;0.30;99.90;;;;;;5017716;28;20108;-61
2023/03/16 04:57:23;;;;;;;6.57;3.53;;;0.30;99.90;;;;;;5017374;28;20030;-61
2023/03/16 04:59:49;;;;;;;10.07;3.95;;;0.40;99.90;;;;;;5016301;28;20099;-61
2023/03/16 05:02:16;;;;;;;6.60;3.95;;;2.30;99.90;;;;;;5016315;28;20025;-61
2023/03/16 05:04:42;;;;;;;5.90;4.22;;;0.40;99.90;;;;;;5016914;28;20367;-61
2023/03/16 05:07:08;;;;;;;9.50;3.88;;;0.40;99.90;;;;;;5017228;28;20029;-61
2023/03/16 05:09:34;;;;;;;5.50;3.70;;;0.50;99.90;;;;;;5017672;28;20034;-61
2023/03/16 05:11:59;;;;;;;4.45;3.30;;;0.50;99.90;;;;;;5016795;28;20049;-61
2023/03/16 05:14:25;;;;;;;7.43;4.38;;;0.50;99.90;;;;;;5016871;28;20076;-61
2023/03/16 05:16:51;;;;;;;6.95;4.80;;;0.40;99.90;;;;;;5022663;28;20021;-61
2023/03/16 05:19:17;;;;;;;6.55;4.13;;;0.50;99.90;;;;;;5035884;28;20029;-73
2023/03/16 05:21:44;;;;;;;8.68;4.30;;;0.50;99.90;;;;;;5036740;28;20033;-73
2023/03/16 05:24:11;;;;;;;5.72;4.35;;;0.50;99.90;;;;;;5036229;28;20408;-72
2023/03/16 05:26:37;;;;;;;6.85;4.07;;;0.40;99.90;;;;;;5035467;28;20025;-72
2023/03/16 05:29:04;;;;;;;9.32;4.40;;;0.40;99.90;;;;;;5035452;28;20032;-72
2023/03/16 05:31:31;;;;;;;6.78;4.47;;;0.40;99.90;;;;;;5034983;28;20041;-72
2023/03/16 05:33:57;;;;;;;7.75;4.25;;;0.30;99.90;;;;;;5035599;28;20029;-72
2023/03/16 05:36:23;;;;;;;8.20;4.60;;;0.30;99.90;;;;;;5036208;28;20076;-73
2023/03/16 05:38:50;;;;;;;14.82;6.03;;;0.30;99.90;;;;;;5036851;28;20052;-73
2023/03/16 05:41:17;;;;;;;11.13;5.75;;;0.20;99.90;;;;;;5035770;28;20030;-73
2023/03/16 05:43:43;;;;;;;9.98;5.95;;;0.20;99.90;;;;;;5035127;28;20025;-73
2023/03/16 05:46:09;;;;;;;10.18;5.72;;;0.30;99.90;;;;;;5034961;28;20030;-73
2023/03/16 05:48:36;;;;;;;11.52;6.10;;;0.30;99.90;;;;;;5034767;28;20082;-73
2023/03/16 05:51:04;;;;;;;11.48;6.45;;;0.30;99.90;;;;;;5034935;28;20025;-72
2023/03/16 05:53:31;;;;;;;9.27;6.10;;;0.20;99.90;;;;;;5036140;28;20037;-72
2023/03/16 05:55:57;;;;;;;10.50;5.78;;;0.30;99.90;;;;;;5034861;28;20029;-72
2023/03/16 05:58:22;;;;;;;8.32;5.15;;;0.30;99.90;;;;;;5036428;28;20082;-72
2023/03/16 06:00:51;;;;;;;13.02;5.50;;;0.30;99.90;;;;;;5035743;28;20025;-72
2023/03/16 06:03:17;;;;;;;11.15;4.75;;;0.40;99.90;;;;;;5035994;28;20109;-71
2023/03/16 06:05:42;;;;;;;7.35;4.63;;;0.40;99.90;;;;;;5034537;28;20545;-72
2023/03/16 06:08:09;;;;;;;10.13;4.78;;;0.50;99.90;;;;;;5035630;28;20104;-72
2023/03/16 06:10:35;;;;;;;12.38;5.30;;;0.60;99.90;;;;;;5035573;28;20041;-72
2023/03/16 06:13:01;;;;;;;14.05;5.43;;;0.70;99.90;;;;;;5035624;28;20495;-73
2023/03/16 06:15:33;;;;;;;8.15;4.40;;;0.80;99.90;;;;;;5035292;28;20021;-72
2023/03/16 06:17:59;;;;;;;7.38;4.93;;;0.90;99.90;;;;;;5036007;28;20032;-73
2023/03/16 06:20:24;;;;;;;10.48;4.85;;;1.10;99.90;;;;;;5034254;28;20025;-72
2023/03/16 06:22:50;;;;;;;8.90;5.25;;;1.40;99.90;;;;;;5035524;28;20104;-72
2023/03/16 06:25:16;;;;;;;4.90;4.13;;;1.80;99.90;;;;;;5035147;28;20121;-72
2023/03/16 06:27:42;;;;;;;9.13;4.63;;;2.10;99.90;;;;;;5034081;28;20030;-72
2023/03/16 06:30:10;;;;;;;5.10;4.22;;;2.60;99.90;;;;;;5034391;28;20028;-72
2023/03/16 06:32:36;;;;;;;5.93;4.10;;;2.90;99.90;;;;;;5034925;28;20045;-72
2023/03/16 06:35:03;;;;;;;7.55;4.38;;;3.40;99.90;;;;;;5034509;28;20029;-72
2023/03/16 06:37:30;;;;;;;8.10;4.00;;;3.80;99.90;;;;;;5034858;28;20461;-73
2023/03/16 06:39:55;;;;;;;7.30;4.40;;;4.10;99.90;;;;;;5033867;28;20033;-72
2023/03/16 06:42:21;;;;;;;10.93;4.60;;;4.40;99.90;;;;;;5034982;28;20025;-73
2023/03/16 06:44:47;;;;;;;7.50;4.93;;;4.40;99.90;;;;;;5035592;28;20029;-73
2023/03/16 06:47:13;;;;;;;6.22;4.30;;;4.40;99.90;;;;;;5034878;28;20029;-72
2023/03/16 06:49:39;;;;;;;6.25;4.38;;;4.40;99.90;;;;;;5035176;28;20476;-73
2023/03/16 06:52:04;;;;;;;5.05;4.40;;;4.50;99.90;;;;;;5034046;28;20033;-72
2023/03/16 06:54:34;;;;;;;6.15;4.20;;;4.50;99.90;;;;;;5033917;28;20436;-72
2023/03/16 06:57:00;;;;;;;6.40;4.32;;;4.50;99.90;;;;;;5035489;28;20027;-73
2023/03/16 06:59:26;;;;;;;4.85;3.88;;;4.50;99.90;;;;;;5034050;28;20359;-73
2023/03/16 07:01:52;;;;;;;8.25;4.78;;;4.60;99.90;;;;;;5035429;28;20056;-72
2023/03/16 07:04:17;;;;;;;9.25;4.38;;;4.40;99.90;;;;;;5033692;28;20051;-72
2023/03/16 07:06:43;;;;;;;6.38;4.20;;;4.40;99.90;;;;;;5034278;28;20030;-72
2023/03/16 07:09:09;;;;;;;7.45;4.40;;;4.50;99.90;;;;;;5033593;28;20380;-73
2023/03/16 07:11:35;;;;;;;6.35;4.20;;;4.50;99.90;;;;;;5033366;28;20037;-74
2023/03/16 07:14:00;;;;;;;6.78;4.57;;;4.70;99.90;;;;;;5034810;28;20032;-72
2023/03/16 07:16:26;;;;;;;13.75;5.05;;;4.90;99.90;;;;;;5034693;28;20021;-73
2023/03/16 07:18:52;;;;;;;6.50;4.03;;;5.20;99.90;;;;;;5034517;28;20139;-73
2023/03/16 07:21:18;;;;;;;6.47;4.13;;;5.40;99.90;;;;;;5034412;28;20422;-73
2023/03/16 07:23:44;;;;;;;7.68;4.07;;;5.70;99.90;;;;;;5034318;28;20104;-73
2023/03/16 07:26:13;;;;;;;6.10;4.05;;;5.90;98.50;;;;;;5033459;28;20021;-72
2023/03/16 07:28:39;;;;;;;;;;;6.20;98.40;;;;;;5034416;28;20465;-72
2023/03/16 07:31:05;;;;;;;6.88;4.82;;;6.70;95.80;;;;;;5033654;28;19967;-72
2023/03/16 07:33:32;;;;;;;8.05;4.88;;;6.90;94.70;;;;;;5033476;28;20025;-72
2023/03/16 07:35:58;;;;;;;7.45;4.57;;;7.00;93.60;;;;;;5034145;28;20053;-72
2023/03/16 07:38:23;;;;;;;8.05;4.35;;;7.20;92.80;;;;;;5032926;28;20053;-72
2023/03/16 07:40:51;;;;;;;9.75;4.20;;;7.30;91.80;;;;;;5033768;28;20025;-72
2023/03/16 07:43:17;;;;;;;7.88;4.25;;;7.30;91.60;;;;;;5034131;28;20021;-72
2023/03/16 07:45:48;;;;;;;8.68;4.68;;;7.70;90.90;;;;;;5033821;28;20075;-72
2023/03/16 07:48:13;;;;;;;7.10;4.35;;;7.80;88.40;;;;;;5034110;28;20033;-72
2023/03/16 07:50:40;;;;;;;5.20;3.90;;;7.70;88.20;;;;;;5033873;28;20381;-71
2023/03/16 07:53:06;;;;;;;5.80;4.13;;;7.80;86.90;;;;;;5034005;28;20029;-72
2023/03/16 07:55:35;;;;;;;6.72;4.18;;;8.10;85.10;;;;;;5034468;28;20036;-74
2023/03/16 07:58:01;;;;;;;6.43;3.60;;;8.50;83.50;;;;;;5034571;28;20056;-71
2023/03/16 08:00:27;;;;;;;7.05;4.32;;;8.70;80.40;;;;;;5033685;28;20418;-62
2023/03/16 08:02:54;;;;;;;6.68;3.67;;;8.70;81.20;;;;;;5016185;28;20028;-62
2023/03/16 08:05:20;;;;;;;6.28;3.70;;;9.00;79.20;;;;;;5032070;28;20455;-62
2023/03/16 08:07:45;;;;;;;6.00;3.58;;;9.30;75.00;;;;;;5033802;28;20022;-62
2023/03/16 08:10:11;;;;;;;5.07;3.83;;;9.40;75.00;;;;;;5033897;28;20105;-62
2023/03/16 08:12:37;;;;;;;4.38;3.78;;;9.70;71.50;;;;;;5033425;28;20087;-63
2023/03/16 08:15:04;;;;;;;6.43;3.75;;;9.80;70.40;;;;;;5037435;28;20025;-71
2023/03/16 08:17:30;;;;;;;8.10;3.53;;;9.40;69.90;;;;;;5039545;28;20025;-70
2023/03/16 08:19:56;;;;;;;5.05;3.80;;;9.20;70.60;;;;;;5039711;28;20075;-70
2023/03/16 08:22:23;;;;;;;6.28;3.53;;;9.00;72.00;;;;;;5038451;28;20445;-71
2023/03/16 08:24:49;;;;;;;8.00;3.58;;;9.20;71.30;;;;;;5039207;28;20017;-71
2023/03/16 08:27:15;;;;;;;6.53;3.50;;;9.00;70.20;;;;;;5038575;28;20072;-70
2023/03/16 08:29:40;;;;;;;7.05;3.70;;;8.70;70.70;;;;;;5040274;28;20481;-71
2023/03/16 08:32:06;;;;;;;5.93;3.83;;;8.70;71.00;;;;;;5040772;28;20493;-70
2023/03/16 08:34:32;;;;;;;5.13;4.03;;;8.60;71.50;;;;;;5038691;28;20495;-71
2023/03/16 08:36:58;;;;;;;4.82;3.35;;;8.60;71.40;;;;;;5040243;28;20433;-72
2023/03/16 08:39:24;;;;;;;5.55;3.40;;;8.60;71.30;;;;;;5038540;28;20025;-71
2023/03/16 08:41:51;;;;;;;6.15;3.33;;;8.70;71.40;;;;;;5038773;28;20068;-71
2023/03/16 08:44:16;;;;;;;6.85;3.58;;;9.30;70.40;;;;;;5036477;28;20385;-72
2023/03/16 08:46:43;;;;;;;8.35;3.75;;;9.70;68.00;;;;;;5035562;28;20022;-72
2023/03/16 08:49:09;;;;;;;4.68;3.70;;;9.90;67.10;;;;;;5037423;28;20475;-72
2023/03/16 08:51:35;;;;;;;6.53;3.40;;;9.50;66.90;;;;;;5037937;28;20034;-71
2023/03/16 08:54:01;;;;;;;6.18;3.75;;;9.70;66.40;;;;;;5038226;28;20480;-71
2023/03/16 08:56:29;;;;;;;6.88;3.80;;;9.80;66.10;;;;;;5039487;28;20025;-72
2023/03/16 08:58:56;;;;;;;4.22;2.90;;;9.90;65.70;;;;;;5038588;28;20079;-72
2023/03/16 09:01:23;;;;;;;6.53;2.90;;;10.20;64.30;;;;;;5039514;28;20029;-72
2023/03/16 09:03:50;;;;;;;6.65;3.20;;;10.10;62.90;;;;;;5038090;28;20025;-73
2023/03/16 09:06:16;;;;;;;5.13;2.90;;;10.30;61.90;;;;;;5038641;28;20024;-73
2023/03/16 09:08:46;;;;;;;5.13;2.65;;;10.50;60.70;;;;;;5035952;28;20053;-73
2023/03/16 09:11:14;;;;;;;5.70;2.08;;;10.80;61.30;;;;;;5033520;28;20029;-73
2023/03/16 09:13:41;;;;;;;10.50;2.65;;;11.50;54.90;;;;;;5033081;28;20034;-72
2023/03/16 09:16:09;;;;;;;2.78;1.70;;;12.20;53.50;;;;;;5032043;28;20122;-72
2023/03/16 09:18:35;;;;;;;6.25;2.60;;;12.80;51.20;;;;;;5036548;28;20022;-72
2023/03/16 09:21:06;;;;;;;6.82;1.92;;;12.60;50.80;;;;;;5036592;28;20030;-72
2023/03/16 09:23:33;;;;;;;8.63;2.05;;;12.00;48.40;;;;;;5035259;28;20025;-72
2023/03/16 09:26:01;;;;;;;8.48;2.38;;;12.00;49.60;;;;;;5036432;28;20034;-72
2023/03/16 09:28:30;;;;;;;5.75;1.85;;;12.90;48.60;;;;;;5036462;28;20104;-72
2023/03/16 09:30:56;;;;;;;5.10;2.15;;;12.90;47.40;;;;;;5036587;28;20021;-72
2023/03/16 09:33:27;;;;;;;4.07;1.70;;;12.70;47.10;;;;;;5036554;28;20466;-72
2023/03/16 09:35:56;;;;;;;3.42;1.42;;;13.60;45.90;;;;;;5036352;28;20017;-72
2023/03/16 09:38:25;;;;;;;4.80;1.50;;;14.20;42.00;;;;;;5035178;28;20428;-73
2023/03/16 09:41:01;;;;;;;3.42;1.92;;;13.90;42.80;;;;;;5035214;28;20128;-73
2023/03/16 09:43:53;;;;;;;3.92;1.52;;;14.10;41.60;;;;;;5035042;28;20393;-73
2023/03/16 09:46:33;;;;;;;5.95;1.63;;;13.70;42.30;;;;;;5034891;28;20026;-72
2023/03/16 09:48:59;;;;;;;6.78;1.75;;;13.20;42.50;;;;;;5034876;28;20075;-72
2023/03/16 09:51:51;;;;;;;4.60;1.92;;;13.10;42.70;;;;;;5035861;28;20033;-72
2023/03/16 09:54:48;;;;;;;4.60;2.10;;;13.30;41.80;;;;;;5034416;28;20130;-72
2023/03/16 09:57:34;;;;;;;3.13;1.65;;;13.30;41.80;;;;;;5035977;28;20022;-73
2023/03/16 10:00:19;;;;;;;4.63;1.40;;;13.20;41.80;;;;;;5035398;28;20512;-73
2023/03/16 10:03:23;;;;;;;4.50;1.50;;;13.70;41.70;;;;;;5036006;28;20100;-73
2023/03/16 10:05:56;;;;;;;1.40;0.93;;;14.90;40.20;;;;;;5035837;28;20021;-73
2023/03/16 10:08:24;;;;;;;5.05;1.63;;;15.20;37.80;;;;;;5035846;28;20049;-73
2023/03/16 10:10:54;;;;;;;4.13;1.00;;;15.20;37.20;;;;;;5033978;28;20199;-73
2023/03/16 10:13:45;;;;;;;4.05;1.17;;;15.10;36.70;;;;;;5034660;28;20064;-73
2023/03/16 10:16:24;;;;;;;2.25;1.20;;;15.20;35.80;;;;;;5035564;28;20416;-73
2023/03/16 10:18:57;;;;;;;5.55;1.65;;;16.00;35.70;;;;;;5035629;28;20082;-73
2023/03/16 10:21:23;;;;;;;1.70;1.30;;;16.50;34.20;;;;;;5035331;28;20069;-73
2023/03/16 10:23:53;;;;;;;2.90;1.10;;;16.40;34.80;;;;;;5035411;28;20029;-73
2023/03/16 10:26:36;;;;;;;11.07;1.80;;;16.50;33.90;;;;;;5035286;28;20100;-73
2023/03/16 10:29:02;;;;;;;2.50;1.10;;;16.20;34.30;;;;;;5035086;28;20068;-73
2023/03/16 10:31:29;;;;;;;3.47;1.52;;;16.20;33.20;;;;;;5033565;28;20057;-73
2023/03/16 10:34:03;;;;;;;2.83;0.95;;;15.30;34.00;;;;;;5034149;28;20021;-73
2023/03/16 10:36:35;;;;;;;4.88;0.93;;;14.60;34.80;;;;;;5034928;28;20104;-73
2023/03/16 10:39:07;;;;;;;4.00;1.02;;;14.40;35.50;;;;;;5035108;28;20029;-73
2023/03/16 10:41:39;;;;;;;5.03;1.52;;;14.50;34.30;;;;;;5033975;28;20076;-72
2023/03/16 10:44:25;;;;;;;3.53;1.52;;;15.00;34.60;;;;;;5033830;28;20066;-73
2023/03/16 10:47:03;;;;;;;1.25;1.15;;;15.70;34.30;;;;;;5033646;28;20126;-73
2023/03/16 10:49:41;;;;;;;2.83;1.27;;;16.00;33.40;;;;;;5035007;28;20025;-73
2023/03/16 10:52:22;;;;;;;5.70;1.25;;;16.00;32.20;;;;;;5033725;28;20671;-73
2023/03/16 10:54:50;;;;;;;2.13;0.93;;;15.10;33.60;;;;;;5035200;28;20037;-72
2023/03/16 10:57:19;;;;;;;3.80;0.88;;;14.70;34.20;;;;;;5033455;28;20022;-72
2023/03/16 10:59:52;;;;;;;;;;;15.20;35.00;;;;;;5034921;28;20034;-72
2023/03/16 11:02:22;;;;;;;2.95;1.55;;;15.60;33.40;;;;;;5033453;28;19905;-73
2023/03/16 11:04:48;;;;;;;1.98;1.27;;;16.00;33.70;;;;;;5034555;28;20021;-71
2023/03/16 11:07:17;;;;;;;2.35;1.60;;;16.40;34.10;;;;;;5034776;28;20021;-70
2023/03/16 11:09:43;;;;;;;2.88;1.67;;;16.00;34.00;;;;;;5033289;28;20025;-70
2023/03/16 11:12:29;;;;;;;2.42;1.65;;;15.20;34.70;;;;;;5033211;28;20124;-70
2023/03/16 11:15:09;;;;;;;4.90;1.65;;;14.70;36.80;;;;;;5033187;28;20029;-71
2023/03/16 11:17:45;;;;;;;2.55;1.60;;;14.70;35.60;;;;;;5033232;28;20022;-71
2023/03/16 11:20:17;;;;;;;3.95;1.73;;;15.40;35.80;;;;;;5034327;28;20040;-71
2023/03/16 11:22:46;;;;;;;4.10;1.60;;;15.70;35.80;;;;;;5034465;28;20029;-71
2023/03/16 11:25:30;;;;;;;3.30;1.60;;;16.20;34.90;;;;;;5033039;28;20049;-71
2023/03/16 11:28:11;;;;;;;2.60;1.60;;;17.20;33.90;;;;;;5034229;28;20026;-71
2023/03/16 11:31:02;;;;;;;5.22;1.88;;;17.50;32.90;;;;;;5032819;28;20033;-71
2023/03/16 11:33:29;;;;;;;3.15;1.55;;;17.60;32.30;;;;;;5033318;28;20103;-71
2023/03/16 11:36:18;;;;;;;4.63;2.03;;;17.90;32.00;;;;;;5032858;28;20397;-72
2023/03/16 11:38:49;;;;;;;4.10;1.48;;;18.20;31.00;;;;;;5032653;28;20373;-72
2023/03/16 11:41:48;;;;;;;3.58;1.52;;;18.40;30.40;;;;;;5033657;28;20029;-72
2023/03/16 11:44:26;;;;;;;2.83;1.52;;;18.70;30.30;;;;;;5015921;28;20029;-72
2023/03/16 11:47:13;;;;;;;4.90;1.27;;;19.20;29.00;;;;;;5032757;28;20539;-72
2023/03/16 11:49:57;;;;;;;3.70;1.83;;;19.20;28.80;;;;;;5032641;28;20444;-72
2023/03/16 11:52:32;;;;;;;4.57;1.75;;;19.20;29.00;;;;;;5032407;28;20040;-72
2023/03/16 11:55:25;;;;;;;4.13;1.70;;;19.50;28.60;;;;;;5033644;28;20067;-72
2023/03/16 11:58:11;;;;;;;1.88;1.15;;;19.20;29.00;;;;;;5034056;28;20029;-72
2023/03/16 12:00:56;;;;;;;2.25;1.50;;;19.40;28.10;;;;;;5034096;28;20373;-72
2023/03/16 12:03:40;;;;;;;2.97;1.92;;;18.60;28.70;;;;;;5033558;28;20466;-72
2023/03/16 12:06:09;;;;;;;2.72;1.83;;;18.80;29.40;;;;;;5033624;28;20049;-72
2023/03/16 12:09:08;;;;;;;3.40;1.67;;;18.10;30.00;;;;;;5032605;28;20032;-73
2023/03/16 12:11:55;;;;;;;3.25;1.88;;;18.80;30.00;;;;;;5010541;28;20045;-68
2023/03/16 12:15:11;;;;;;;3.25;1.67;;;18.00;31.00;;;;;;5033967;28;20025;-69
2023/03/16 12:17:37;;;;;;;5.68;1.88;;;17.30;31.20;;;;;;5015340;28;20390;-62
2023/03/16 12:20:17;;;;;;;2.83;1.70;;;16.60;31.90;;;;;;5033271;28;20420;-71
2023/03/16 12:22:47;;;;;;;7.45;1.98;;;16.60;31.70;;;;;;5033799;28;20405;-71
2023/03/16 12:25:25;;;;;;;4.30;1.88;;;17.10;31.30;;;;;;5033694;28;20104;-71
2023/03/16 12:27:57;;;;;;;3.53;1.58;;;18.00;30.70;;;;;;5032533;28;20052;-71
2023/03/16 12:30:44;;;;;;;5.68;2.00;;;18.50;29.80;;;;;;5033505;28;20022;-71
2023/03/16 12:33:28;;;;;;;2.90;2.00;;;19.20;28.70;;;;;;5033939;28;20045;-72
2023/03/16 12:36:12;;;;;;;3.97;1.67;;;18.40;29.30;;;;;;5033259;28;20032;-73
2023/03/16 12:38:52;;;;;;;4.10;2.25;;;18.80;29.20;;;;;;5032422;28;20099;-72
2023/03/16 12:41:32;;;;;;;3.33;1.80;;;19.10;29.40;;;;;;5033448;28;20021;-72
2023/03/16 12:44:10;;;;;;;4.72;1.90;;;19.70;28.80;;;;;;5033506;28;20026;-71
2023/03/16 12:46:52;;;;;;;2.08;1.58;;;19.50;29.10;;;;;;5032146;28;20416;-71
2023/03/16 12:49:19;;;;;;;3.58;1.85;;;20.10;29.20;;;;;;5033349;28;20017;-71
2023/03/16 12:51:47;;;;;;;3.88;2.15;;;19.90;28.60;;;;;;5035641;28;20026;-72
2023/03/16 12:54:24;;;;;;;5.70;2.28;;;19.30;28.90;;;;;;5036775;28;20377;-71
2023/03/16 12:56:53;;;;;;;1.80;1.67;;;18.00;29.80;;;;;;5035777;28;20031;-71
2023/03/16 12:59:23;;;;;;;3.35;1.75;;;17.30;30.60;;;;;;5037030;28;20080;-71
2023/03/16 13:01:59;;;;;;;2.85;2.20;;;17.30;30.60;;;;;;5036953;28;20084;-71
2023/03/16 13:04:40;;;;;;;2.05;1.60;;;17.50;30.70;;;;;;5036939;28;20025;-71
2023/03/16 13:07:16;;;;;;;2.58;1.77;;;17.40;30.40;;;;;;5036743;28;20037;-71
2023/03/16 13:09:59;;;;;;;5.15;2.03;;;17.40;30.50;;;;;;5036870;28;20448;-71